sensor_id;sensor_type;location;lat;lon;timestamp;pressure;altitude;pressure_sealevel;temperature;humidity
61488;BME280;47351;53.326;-6.298;2023-07-20T00:00:58;101594.65;;;14.88;80.11
61488;BME280;47351;53.326;-6.298;2023-07-20T00:03:49;101595.50;;;14.90;80.15
61488;BME280;47351;53.326;-6.298;2023-07-20T00:06:44;101595.88;;;14.91;79.84
61488;BME280;47351;53.326;-6.298;2023-07-20T00:09:35;101594.11;;;14.94;79.75
61488;BME280;47351;53.326;-6.298;2023-07-20T00:12:25;101597.38;;;14.97;79.45
61488;BME280;47351;53.326;-6.298;2023-07-20T00:15:16;101592.95;;;14.99;79.43
61488;BME280;47351;53.326;-6.298;2023-07-20T00:18:09;101596.10;;;15.04;79.38
61488;BME280;47351;53.326;-6.298;2023-07-20T00:21:00;101598.71;;;15.06;79.16
61488;BME280;47351;53.326;-6.298;2023-07-20T00:23:51;101596.26;;;15.08;79.01
61488;BME280;47351;53.326;-6.298;2023-07-20T00:26:41;101595.17;;;15.08;78.98
61488;BME280;47351;53.326;-6.298;2023-07-20T00:29:33;101594.56;;;15.07;79.03
61488;BME280;47351;53.326;-6.298;2023-07-20T00:32:24;101593.23;;;15.04;78.97
61488;BME280;47351;53.326;-6.298;2023-07-20T00:35:14;101591.77;;;15.00;79.18
61488;BME280;47351;53.326;-6.298;2023-07-20T00:38:05;101593.09;;;14.98;79.14
61488;BME280;47351;53.326;-6.298;2023-07-20T00:40:56;101596.25;;;14.96;79.20
61488;BME280;47351;53.326;-6.298;2023-07-20T00:43:46;101598.08;;;14.92;79.18
61488;BME280;47351;53.326;-6.298;2023-07-20T00:46:37;101596.45;;;14.89;79.35
61488;BME280;47351;53.326;-6.298;2023-07-20T00:49:28;101593.71;;;14.86;79.41
61488;BME280;47351;53.326;-6.298;2023-07-20T00:52:20;101593.52;;;14.82;79.51
61488;BME280;47351;53.326;-6.298;2023-07-20T00:55:12;101592.27;;;14.79;79.78
61488;BME280;47351;53.326;-6.298;2023-07-20T00:58:03;101594.25;;;14.76;80.02
61488;BME280;47351;53.326;-6.298;2023-07-20T01:00:56;101596.71;;;14.73;80.34
61488;BME280;47351;53.326;-6.298;2023-07-20T01:03:47;101595.42;;;14.70;80.39
61488;BME280;47351;53.326;-6.298;2023-07-20T01:06:41;101590.48;;;14.66;80.47
61488;BME280;47351;53.326;-6.298;2023-07-20T01:09:38;101587.84;;;14.64;80.73
61488;BME280;47351;53.326;-6.298;2023-07-20T01:12:32;101591.38;;;14.61;80.79
61488;BME280;47351;53.326;-6.298;2023-07-20T01:15:23;101590.55;;;14.58;80.93
61488;BME280;47351;53.326;-6.298;2023-07-20T01:18:14;101595.48;;;14.56;80.85
61488;BME280;47351;53.326;-6.298;2023-07-20T01:21:05;101591.98;;;14.55;81.06
61488;BME280;47351;53.326;-6.298;2023-07-20T01:24:01;101591.35;;;14.56;81.37
61488;BME280;47351;53.326;-6.298;2023-07-20T01:30:20;101587.77;;;14.63;81.87
61488;BME280;47351;53.326;-6.298;2023-07-20T01:33:16;101588.06;;;14.68;81.94
61488;BME280;47351;53.326;-6.298;2023-07-20T01:36:07;101583.16;;;14.72;81.83
61488;BME280;47351;53.326;-6.298;2023-07-20T01:39:00;101584.08;;;14.77;81.96
61488;BME280;47351;53.326;-6.298;2023-07-20T01:41:53;101582.44;;;14.80;81.83
61488;BME280;47351;53.326;-6.298;2023-07-20T01:44:45;101577.98;;;14.81;81.68
61488;BME280;47351;53.326;-6.298;2023-07-20T01:47:35;101578.12;;;14.80;81.14
61488;BME280;47351;53.326;-6.298;2023-07-20T01:50:26;101576.37;;;14.78;81.21
61488;BME280;47351;53.326;-6.298;2023-07-20T01:53:17;101572.11;;;14.75;80.98
61488;BME280;47351;53.326;-6.298;2023-07-20T01:56:09;101576.35;;;14.70;80.90
61488;BME280;47351;53.326;-6.298;2023-07-20T01:59:01;101573.33;;;14.63;80.67
61488;BME280;47351;53.326;-6.298;2023-07-20T02:01:52;101570.05;;;14.58;81.04
61488;BME280;47351;53.326;-6.298;2023-07-20T02:04:43;101568.89;;;14.54;80.92
61488;BME280;47351;53.326;-6.298;2023-07-20T02:07:35;101567.39;;;14.50;81.14
61488;BME280;47351;53.326;-6.298;2023-07-20T02:10:26;101564.58;;;14.46;81.32
61488;BME280;47351;53.326;-6.298;2023-07-20T02:13:17;101563.08;;;14.43;81.54
61488;BME280;47351;53.326;-6.298;2023-07-20T02:16:07;101564.29;;;14.38;81.58
61488;BME280;47351;53.326;-6.298;2023-07-20T02:18:58;101562.88;;;14.33;81.71
61488;BME280;47351;53.326;-6.298;2023-07-20T02:21:48;101563.49;;;14.30;82.00
61488;BME280;47351;53.326;-6.298;2023-07-20T02:24:39;101561.44;;;14.28;82.09
61488;BME280;47351;53.326;-6.298;2023-07-20T02:27:29;101560.22;;;14.24;82.20
61488;BME280;47351;53.326;-6.298;2023-07-20T02:30:20;101563.05;;;14.21;82.48
61488;BME280;47351;53.326;-6.298;2023-07-20T02:33:11;101564.22;;;14.19;82.68
61488;BME280;47351;53.326;-6.298;2023-07-20T02:36:02;101562.40;;;14.17;82.98
61488;BME280;47351;53.326;-6.298;2023-07-20T02:38:52;101564.42;;;14.17;83.06
61488;BME280;47351;53.326;-6.298;2023-07-20T02:41:43;101559.30;;;14.16;83.10
61488;BME280;47351;53.326;-6.298;2023-07-20T02:44:35;101556.98;;;14.16;83.41
61488;BME280;47351;53.326;-6.298;2023-07-20T02:47:25;101554.36;;;14.17;83.62
61488;BME280;47351;53.326;-6.298;2023-07-20T02:50:16;101549.94;;;14.18;83.56
61488;BME280;47351;53.326;-6.298;2023-07-20T02:53:07;101546.21;;;14.19;83.62
61488;BME280;47351;53.326;-6.298;2023-07-20T02:56:01;101545.64;;;14.21;83.79
61488;BME280;47351;53.326;-6.298;2023-07-20T02:58:51;101544.92;;;14.22;83.88
61488;BME280;47351;53.326;-6.298;2023-07-20T03:01:42;101544.61;;;14.24;83.88
61488;BME280;47351;53.326;-6.298;2023-07-20T03:04:33;101542.20;;;14.23;83.69
61488;BME280;47351;53.326;-6.298;2023-07-20T03:07:27;101535.48;;;14.20;83.47
61488;BME280;47351;53.326;-6.298;2023-07-20T03:10:18;101540.48;;;14.15;83.28
61488;BME280;47351;53.326;-6.298;2023-07-20T03:13:09;101538.30;;;14.10;83.26
61488;BME280;47351;53.326;-6.298;2023-07-20T03:16:00;101537.16;;;14.06;83.22
61488;BME280;47351;53.326;-6.298;2023-07-20T03:18:50;101538.92;;;14.01;83.16
61488;BME280;47351;53.326;-6.298;2023-07-20T03:21:41;101538.13;;;13.97;83.24
61488;BME280;47351;53.326;-6.298;2023-07-20T03:24:32;101534.47;;;13.92;83.44
61488;BME280;47351;53.326;-6.298;2023-07-20T03:27:23;101532.80;;;13.87;83.47
61488;BME280;47351;53.326;-6.298;2023-07-20T03:30:14;101533.40;;;13.83;83.77
61488;BME280;47351;53.326;-6.298;2023-07-20T03:33:04;101531.52;;;13.79;83.79
61488;BME280;47351;53.326;-6.298;2023-07-20T03:35:55;101532.90;;;13.76;84.12
61488;BME280;47351;53.326;-6.298;2023-07-20T03:38:46;101533.89;;;13.74;84.39
61488;BME280;47351;53.326;-6.298;2023-07-20T03:41:37;101534.30;;;13.71;84.34
61488;BME280;47351;53.326;-6.298;2023-07-20T03:44:28;101533.54;;;13.68;84.53
61488;BME280;47351;53.326;-6.298;2023-07-20T03:47:18;101532.73;;;13.67;84.90
61488;BME280;47351;53.326;-6.298;2023-07-20T03:50:09;101535.19;;;13.66;85.15
61488;BME280;47351;53.326;-6.298;2023-07-20T03:53:00;101536.70;;;13.65;85.19
61488;BME280;47351;53.326;-6.298;2023-07-20T03:55:51;101535.20;;;13.64;85.27
61488;BME280;47351;53.326;-6.298;2023-07-20T03:58:42;101536.67;;;13.64;85.39
61488;BME280;47351;53.326;-6.298;2023-07-20T04:01:32;101538.40;;;13.64;85.46
61488;BME280;47351;53.326;-6.298;2023-07-20T04:04:25;101538.05;;;13.66;85.65
61488;BME280;47351;53.326;-6.298;2023-07-20T04:07:16;101540.31;;;13.69;85.97
61488;BME280;47351;53.326;-6.298;2023-07-20T04:10:07;101539.44;;;13.74;86.23
61488;BME280;47351;53.326;-6.298;2023-07-20T04:12:59;101536.88;;;13.78;86.28
61488;BME280;47351;53.326;-6.298;2023-07-20T04:15:50;101536.05;;;13.82;86.36
61488;BME280;47351;53.326;-6.298;2023-07-20T04:18:41;101537.65;;;13.85;86.18
61488;BME280;47351;53.326;-6.298;2023-07-20T04:21:31;101536.48;;;13.86;85.99
61488;BME280;47351;53.326;-6.298;2023-07-20T04:24:22;101536.68;;;13.86;85.82
61488;BME280;47351;53.326;-6.298;2023-07-20T04:27:12;101538.13;;;13.86;85.69
61488;BME280;47351;53.326;-6.298;2023-07-20T04:30:03;101539.70;;;13.83;85.46
61488;BME280;47351;53.326;-6.298;2023-07-20T04:32:54;101542.47;;;13.79;85.52
61488;BME280;47351;53.326;-6.298;2023-07-20T04:35:49;101546.69;;;13.76;85.43
61488;BME280;47351;53.326;-6.298;2023-07-20T04:38:47;101544.08;;;13.72;85.45
61488;BME280;47351;53.326;-6.298;2023-07-20T04:41:40;101544.25;;;13.69;85.52
61488;BME280;47351;53.326;-6.298;2023-07-20T04:44:31;101546.67;;;13.64;85.52
61488;BME280;47351;53.326;-6.298;2023-07-20T04:47:24;101542.31;;;13.60;85.52
61488;BME280;47351;53.326;-6.298;2023-07-20T04:50:15;101538.88;;;13.56;85.62
61488;BME280;47351;53.326;-6.298;2023-07-20T04:53:05;101537.37;;;13.52;85.45
61488;BME280;47351;53.326;-6.298;2023-07-20T04:55:56;101538.70;;;13.48;85.38
61488;BME280;47351;53.326;-6.298;2023-07-20T04:58:50;101537.89;;;13.45;85.51
61488;BME280;47351;53.326;-6.298;2023-07-20T05:01:41;101535.63;;;13.43;85.49
61488;BME280;47351;53.326;-6.298;2023-07-20T05:04:31;101532.91;;;13.43;85.83
61488;BME280;47351;53.326;-6.298;2023-07-20T05:07:27;101536.15;;;13.44;85.97
61488;BME280;47351;53.326;-6.298;2023-07-20T05:10:18;101531.33;;;13.48;86.20
61488;BME280;47351;53.326;-6.298;2023-07-20T05:13:09;101532.06;;;13.53;86.24
61488;BME280;47351;53.326;-6.298;2023-07-20T05:15:59;101531.88;;;13.60;86.49
61488;BME280;47351;53.326;-6.298;2023-07-20T05:18:51;101526.52;;;13.68;86.53
61488;BME280;47351;53.326;-6.298;2023-07-20T05:21:41;101530.98;;;13.77;86.44
61488;BME280;47351;53.326;-6.298;2023-07-20T05:24:32;101529.48;;;13.85;86.19
61488;BME280;47351;53.326;-6.298;2023-07-20T05:27:22;101527.10;;;13.90;85.76
61488;BME280;47351;53.326;-6.298;2023-07-20T05:30:13;101524.36;;;13.96;85.58
61488;BME280;47351;53.326;-6.298;2023-07-20T05:33:04;101521.73;;;14.01;85.34
61488;BME280;47351;53.326;-6.298;2023-07-20T05:35:55;101520.39;;;14.03;84.90
61488;BME280;47351;53.326;-6.298;2023-07-20T05:38:45;101517.19;;;14.04;84.62
61488;BME280;47351;53.326;-6.298;2023-07-20T05:41:36;101513.84;;;14.07;84.68
61488;BME280;47351;53.326;-6.298;2023-07-20T05:44:27;101511.54;;;14.10;84.54
61488;BME280;47351;53.326;-6.298;2023-07-20T05:47:17;101511.65;;;14.13;84.40
61488;BME280;47351;53.326;-6.298;2023-07-20T05:50:08;101514.20;;;14.16;84.32
61488;BME280;47351;53.326;-6.298;2023-07-20T05:52:59;101515.65;;;14.19;84.37
61488;BME280;47351;53.326;-6.298;2023-07-20T05:55:53;101516.76;;;14.21;84.03
61488;BME280;47351;53.326;-6.298;2023-07-20T05:58:43;101515.55;;;14.20;83.64
61488;BME280;47351;53.326;-6.298;2023-07-20T06:01:34;101516.13;;;14.21;83.79
61488;BME280;47351;53.326;-6.298;2023-07-20T06:04:27;101512.44;;;14.24;83.78
61488;BME280;47351;53.326;-6.298;2023-07-20T06:07:18;101510.13;;;14.31;83.96
61488;BME280;47351;53.326;-6.298;2023-07-20T06:10:08;101511.10;;;14.38;83.97
61488;BME280;47351;53.326;-6.298;2023-07-20T06:12:59;101511.23;;;14.47;83.74
61488;BME280;47351;53.326;-6.298;2023-07-20T06:15:50;101518.64;;;14.54;83.26
61488;BME280;47351;53.326;-6.298;2023-07-20T06:18:41;101519.71;;;14.59;82.88
61488;BME280;47351;53.326;-6.298;2023-07-20T06:21:31;101524.15;;;14.68;83.16
61488;BME280;47351;53.326;-6.298;2023-07-20T06:24:22;101519.59;;;14.81;83.39
61488;BME280;47351;53.326;-6.298;2023-07-20T06:27:13;101519.10;;;14.91;82.86
61488;BME280;47351;53.326;-6.298;2023-07-20T06:30:05;101521.64;;;14.98;82.29
61488;BME280;47351;53.326;-6.298;2023-07-20T06:32:56;101524.17;;;15.04;82.06
61488;BME280;47351;53.326;-6.298;2023-07-20T06:36:01;101526.20;;;15.07;81.42
61488;BME280;47351;53.326;-6.298;2023-07-20T06:38:52;101533.31;;;15.08;81.15
61488;BME280;47351;53.326;-6.298;2023-07-20T06:41:45;101538.92;;;15.08;80.93
61488;BME280;47351;53.326;-6.298;2023-07-20T06:44:36;101536.91;;;15.06;80.88
61488;BME280;47351;53.326;-6.298;2023-07-20T06:47:26;101538.54;;;15.07;80.76
61488;BME280;47351;53.326;-6.298;2023-07-20T06:50:17;101539.65;;;15.15;81.00
61488;BME280;47351;53.326;-6.298;2023-07-20T06:53:07;101543.26;;;15.25;80.71
61488;BME280;47351;53.326;-6.298;2023-07-20T06:55:58;101543.07;;;15.32;80.16
61488;BME280;47351;53.326;-6.298;2023-07-20T06:58:48;101544.24;;;15.42;80.21
61488;BME280;47351;53.326;-6.298;2023-07-20T07:01:39;101545.55;;;15.57;79.86
61488;BME280;47351;53.326;-6.298;2023-07-20T07:04:30;101548.98;;;15.71;79.57
61488;BME280;47351;53.326;-6.298;2023-07-20T07:07:20;101551.13;;;15.84;78.71
61488;BME280;47351;53.326;-6.298;2023-07-20T07:10:15;101554.68;;;15.93;78.02
61488;BME280;47351;53.326;-6.298;2023-07-20T07:13:06;101556.76;;;16.01;77.54
61488;BME280;47351;53.326;-6.298;2023-07-20T07:15:56;101556.79;;;16.12;77.57
61488;BME280;47351;53.326;-6.298;2023-07-20T07:18:47;101554.56;;;16.24;77.32
61488;BME280;47351;53.326;-6.298;2023-07-20T07:21:38;101555.33;;;16.33;76.63
61488;BME280;47351;53.326;-6.298;2023-07-20T07:24:29;101555.68;;;16.44;76.34
61488;BME280;47351;53.326;-6.298;2023-07-20T07:27:23;101555.25;;;16.62;75.89
61488;BME280;47351;53.326;-6.298;2023-07-20T07:30:14;101555.45;;;16.79;75.87
61488;BME280;47351;53.326;-6.298;2023-07-20T07:33:04;101550.35;;;16.94;75.24
61488;BME280;47351;53.326;-6.298;2023-07-20T07:35:55;101551.88;;;17.00;74.87
61488;BME280;47351;53.326;-6.298;2023-07-20T07:38:50;101548.30;;;17.08;75.39
61488;BME280;47351;53.326;-6.298;2023-07-20T07:42:00;101543.66;;;17.15;75.36
61488;BME280;47351;53.326;-6.298;2023-07-20T07:44:51;101542.39;;;17.19;74.85
61488;BME280;47351;53.326;-6.298;2023-07-20T07:47:41;101542.37;;;17.23;74.43
61488;BME280;47351;53.326;-6.298;2023-07-20T07:50:32;101541.20;;;17.34;73.97
61488;BME280;47351;53.326;-6.298;2023-07-20T07:53:23;101541.97;;;17.46;73.57
61488;BME280;47351;53.326;-6.298;2023-07-20T07:56:15;101538.96;;;17.58;72.98
61488;BME280;47351;53.326;-6.298;2023-07-20T07:59:06;101533.13;;;17.76;72.76
61488;BME280;47351;53.326;-6.298;2023-07-20T08:01:56;101531.10;;;18.27;70.73
61488;BME280;47351;53.326;-6.298;2023-07-20T08:04:47;101527.59;;;18.84;68.68
61488;BME280;47351;53.326;-6.298;2023-07-20T08:07:41;101528.68;;;19.44;67.25
61488;BME280;47351;53.326;-6.298;2023-07-20T08:10:32;101529.83;;;20.13;66.05
61488;BME280;47351;53.326;-6.298;2023-07-20T08:13:22;101523.53;;;20.79;64.38
61488;BME280;47351;53.326;-6.298;2023-07-20T08:16:13;101525.21;;;21.46;62.69
61488;BME280;47351;53.326;-6.298;2023-07-20T08:19:04;101525.55;;;22.12;61.27
61488;BME280;47351;53.326;-6.298;2023-07-20T08:21:54;101523.84;;;22.77;59.45
61488;BME280;47351;53.326;-6.298;2023-07-20T08:24:45;101519.53;;;23.40;57.81
61488;BME280;47351;53.326;-6.298;2023-07-20T08:27:36;101521.84;;;24.05;56.29
61488;BME280;47351;53.326;-6.298;2023-07-20T08:30:27;101514.42;;;24.71;54.66
61488;BME280;47351;53.326;-6.298;2023-07-20T08:33:29;101512.52;;;25.28;51.91
61488;BME280;47351;53.326;-6.298;2023-07-20T08:36:22;101511.21;;;25.77;49.82
61488;BME280;47351;53.326;-6.298;2023-07-20T08:39:13;101511.30;;;26.08;48.35
61488;BME280;47351;53.326;-6.298;2023-07-20T08:42:04;101517.30;;;26.51;47.79
61488;BME280;47351;53.326;-6.298;2023-07-20T08:44:56;101516.92;;;27.10;47.08
61488;BME280;47351;53.326;-6.298;2023-07-20T08:47:47;101515.80;;;27.77;45.82
61488;BME280;47351;53.326;-6.298;2023-07-20T08:50:39;101515.35;;;28.03;44.87
61488;BME280;47351;53.326;-6.298;2023-07-20T08:53:30;101512.30;;;28.20;44.20
61488;BME280;47351;53.326;-6.298;2023-07-20T08:56:21;101511.80;;;27.98;43.81
61488;BME280;47351;53.326;-6.298;2023-07-20T08:59:14;101507.33;;;27.66;42.76
61488;BME280;47351;53.326;-6.298;2023-07-20T09:02:07;101513.12;;;26.36;43.32
61488;BME280;47351;53.326;-6.298;2023-07-20T09:05:06;101512.48;;;25.97;44.48
61488;BME280;47351;53.326;-6.298;2023-07-20T09:07:58;101507.27;;;26.96;42.84
61488;BME280;47351;53.326;-6.298;2023-07-20T09:10:49;101506.49;;;27.85;41.96
61488;BME280;47351;53.326;-6.298;2023-07-20T09:13:39;101503.14;;;28.00;40.99
61488;BME280;47351;53.326;-6.298;2023-07-20T09:16:30;101498.95;;;28.16;40.87
61488;BME280;47351;53.326;-6.298;2023-07-20T09:19:21;101495.73;;;28.63;40.77
61488;BME280;47351;53.326;-6.298;2023-07-20T09:22:12;101484.58;;;29.33;39.78
61488;BME280;47351;53.326;-6.298;2023-07-20T09:25:03;101482.07;;;29.99;38.58
61488;BME280;47351;53.326;-6.298;2023-07-20T09:27:56;101488.02;;;29.53;37.47
61488;BME280;47351;53.326;-6.298;2023-07-20T09:30:47;101488.25;;;28.54;38.42
61488;BME280;47351;53.326;-6.298;2023-07-20T09:33:41;101488.27;;;27.36;38.23
61488;BME280;47351;53.326;-6.298;2023-07-20T09:36:49;101489.33;;;25.86;39.01
61488;BME280;47351;53.326;-6.298;2023-07-20T09:39:45;101492.98;;;24.85;40.39
61488;BME280;47351;53.326;-6.298;2023-07-20T09:42:40;101497.83;;;23.93;40.79
61488;BME280;47351;53.326;-6.298;2023-07-20T09:45:51;101493.59;;;23.27;42.47
61488;BME280;47351;53.326;-6.298;2023-07-20T09:48:52;101492.85;;;22.70;43.32
61488;BME280;47351;53.326;-6.298;2023-07-20T09:51:46;101492.05;;;21.99;44.07
61488;BME280;47351;53.326;-6.298;2023-07-20T09:54:38;101494.48;;;21.33;45.21
61488;BME280;47351;53.326;-6.298;2023-07-20T09:57:29;101493.52;;;20.76;46.74
61488;BME280;47351;53.326;-6.298;2023-07-20T10:00:21;101498.05;;;20.34;48.07
61488;BME280;47351;53.326;-6.298;2023-07-20T10:03:16;101499.11;;;20.04;49.61
61488;BME280;47351;53.326;-6.298;2023-07-20T10:06:08;101495.52;;;19.91;50.46
61488;BME280;47351;53.326;-6.298;2023-07-20T10:09:01;101495.77;;;19.99;50.51
61488;BME280;47351;53.326;-6.298;2023-07-20T10:11:52;101491.20;;;20.24;50.35
61488;BME280;47351;53.326;-6.298;2023-07-20T10:15:06;101483.23;;;20.68;50.20
61488;BME280;47351;53.326;-6.298;2023-07-20T10:18:02;101480.05;;;20.79;49.96
61488;BME280;47351;53.326;-6.298;2023-07-20T10:20:54;101480.52;;;20.60;50.31
61488;BME280;47351;53.326;-6.298;2023-07-20T10:23:48;101483.13;;;20.46;51.39
61488;BME280;47351;53.326;-6.298;2023-07-20T10:26:39;101488.09;;;20.45;51.74
61488;BME280;47351;53.326;-6.298;2023-07-20T10:29:30;101485.92;;;20.47;50.87
61488;BME280;47351;53.326;-6.298;2023-07-20T10:32:22;101488.20;;;20.44;50.87
61488;BME280;47351;53.326;-6.298;2023-07-20T10:35:15;101486.80;;;20.47;51.50
61488;BME280;47351;53.326;-6.298;2023-07-20T10:38:06;101483.56;;;20.98;51.33
61488;BME280;47351;53.326;-6.298;2023-07-20T10:40:57;101483.76;;;21.78;50.07
61488;BME280;47351;53.326;-6.298;2023-07-20T10:43:48;101482.31;;;22.26;49.75
61488;BME280;47351;53.326;-6.298;2023-07-20T10:46:43;101480.38;;;22.69;47.83
61488;BME280;47351;53.326;-6.298;2023-07-20T10:49:35;101479.39;;;22.58;47.54
61488;BME280;47351;53.326;-6.298;2023-07-20T10:52:49;101482.00;;;22.22;47.44
61488;BME280;47351;53.326;-6.298;2023-07-20T10:56:00;101493.64;;;21.51;49.31
61488;BME280;47351;53.326;-6.298;2023-07-20T10:58:59;101499.54;;;20.65;51.55
61488;BME280;47351;53.326;-6.298;2023-07-20T11:01:50;101505.83;;;19.84;53.28
61488;BME280;47351;53.326;-6.298;2023-07-20T11:04:42;101499.45;;;19.31;55.15
61488;BME280;47351;53.326;-6.298;2023-07-20T11:07:39;101500.08;;;19.05;56.29
61488;BME280;47351;53.326;-6.298;2023-07-20T11:10:31;101502.23;;;18.95;57.04
61488;BME280;47351;53.326;-6.298;2023-07-20T11:13:22;101498.04;;;19.05;57.35
61488;BME280;47351;53.326;-6.298;2023-07-20T11:16:13;101498.13;;;19.53;56.85
61488;BME280;47351;53.326;-6.298;2023-07-20T11:19:13;101484.23;;;21.13;55.17
61488;BME280;47351;53.326;-6.298;2023-07-20T11:22:24;101470.97;;;24.37;50.55
61488;BME280;47351;53.326;-6.298;2023-07-20T11:25:15;101462.42;;;26.29;47.35
61488;BME280;47351;53.326;-6.298;2023-07-20T11:28:08;101459.61;;;28.34;44.00
61488;BME280;47351;53.326;-6.298;2023-07-20T11:30:59;101457.40;;;28.43;42.97
61488;BME280;47351;53.326;-6.298;2023-07-20T11:33:50;101456.02;;;27.84;43.00
61488;BME280;47351;53.326;-6.298;2023-07-20T11:36:41;101452.95;;;27.31;42.66
61488;BME280;47351;53.326;-6.298;2023-07-20T11:39:34;101451.77;;;27.48;41.07
61488;BME280;47351;53.326;-6.298;2023-07-20T11:42:25;101453.00;;;27.38;39.96
61488;BME280;47351;53.326;-6.298;2023-07-20T11:45:18;101448.27;;;28.51;39.01
61488;BME280;47351;53.326;-6.298;2023-07-20T11:48:15;101443.43;;;30.47;37.26
61488;BME280;47351;53.326;-6.298;2023-07-20T11:51:06;101442.27;;;32.02;34.98
61488;BME280;47351;53.326;-6.298;2023-07-20T11:54:03;101432.97;;;33.15;32.96
61488;BME280;47351;53.326;-6.298;2023-07-20T11:56:55;101430.37;;;33.74;31.43
61488;BME280;47351;53.326;-6.298;2023-07-20T11:59:53;101428.74;;;33.98;30.80
61488;BME280;47351;53.326;-6.298;2023-07-20T12:02:46;101431.77;;;33.17;30.77
61488;BME280;47351;53.326;-6.298;2023-07-20T12:05:37;101434.02;;;32.71;31.52
61488;BME280;47351;53.326;-6.298;2023-07-20T12:08:48;101425.11;;;32.90;31.07
61488;BME280;47351;53.326;-6.298;2023-07-20T12:11:38;101424.35;;;33.46;29.88
61488;BME280;47351;53.326;-6.298;2023-07-20T12:14:29;101419.71;;;33.21;30.05
61488;BME280;47351;53.326;-6.298;2023-07-20T12:17:19;101418.86;;;32.10;30.42
61488;BME280;47351;53.326;-6.298;2023-07-20T12:20:11;101412.92;;;30.92;31.11
61488;BME280;47351;53.326;-6.298;2023-07-20T12:23:03;101413.41;;;29.49;31.61
61488;BME280;47351;53.326;-6.298;2023-07-20T12:25:54;101418.77;;;27.88;32.79
61488;BME280;47351;53.326;-6.298;2023-07-20T12:28:46;101421.84;;;26.52;34.33
61488;BME280;47351;53.326;-6.298;2023-07-20T12:31:37;101421.02;;;25.36;35.83
61488;BME280;47351;53.326;-6.298;2023-07-20T12:34:28;101423.41;;;24.46;36.92
61488;BME280;47351;53.326;-6.298;2023-07-20T12:37:19;101420.41;;;23.69;37.72
61488;BME280;47351;53.326;-6.298;2023-07-20T12:40:10;101423.92;;;23.15;38.69
61488;BME280;47351;53.326;-6.298;2023-07-20T12:43:01;101418.90;;;22.82;39.77
61488;BME280;47351;53.326;-6.298;2023-07-20T12:45:51;101420.63;;;22.63;39.85
61488;BME280;47351;53.326;-6.298;2023-07-20T12:48:42;101421.27;;;22.73;40.54
61488;BME280;47351;53.326;-6.298;2023-07-20T12:51:36;101418.52;;;22.96;40.23
61488;BME280;47351;53.326;-6.298;2023-07-20T12:54:26;101415.41;;;23.04;39.63
61488;BME280;47351;53.326;-6.298;2023-07-20T12:57:20;101410.04;;;23.14;39.33
61488;BME280;47351;53.326;-6.298;2023-07-20T13:00:11;101408.96;;;23.17;39.08
61488;BME280;47351;53.326;-6.298;2023-07-20T13:03:02;101409.40;;;23.11;39.24
61488;BME280;47351;53.326;-6.298;2023-07-20T13:05:56;101409.10;;;23.11;39.41
61488;BME280;47351;53.326;-6.298;2023-07-20T13:08:51;101407.90;;;23.07;39.08
61488;BME280;47351;53.326;-6.298;2023-07-20T13:11:44;101405.31;;;22.89;38.59
61488;BME280;47351;53.326;-6.298;2023-07-20T13:14:35;101401.33;;;22.42;38.37
61488;BME280;47351;53.326;-6.298;2023-07-20T13:17:25;101404.17;;;21.99;39.33
61488;BME280;47351;53.326;-6.298;2023-07-20T13:20:16;101406.30;;;21.56;39.91
61488;BME280;47351;53.326;-6.298;2023-07-20T13:23:07;101404.34;;;21.22;40.73
61488;BME280;47351;53.326;-6.298;2023-07-20T13:25:58;101406.41;;;20.98;41.42
61488;BME280;47351;53.326;-6.298;2023-07-20T13:28:48;101402.56;;;20.78;41.78
61488;BME280;47351;53.326;-6.298;2023-07-20T13:31:38;101399.86;;;20.62;42.65
61488;BME280;47351;53.326;-6.298;2023-07-20T13:34:30;101401.40;;;20.46;43.02
61488;BME280;47351;53.326;-6.298;2023-07-20T13:37:21;101404.29;;;20.41;43.54
61488;BME280;47351;53.326;-6.298;2023-07-20T13:40:12;101405.77;;;20.49;44.21
61488;BME280;47351;53.326;-6.298;2023-07-20T13:43:05;101406.19;;;20.61;44.42
61488;BME280;47351;53.326;-6.298;2023-07-20T13:45:56;101407.08;;;20.52;44.23
61488;BME280;47351;53.326;-6.298;2023-07-20T13:48:46;101410.61;;;20.29;44.42
61488;BME280;47351;53.326;-6.298;2023-07-20T13:51:43;101418.50;;;19.89;45.47
61488;BME280;47351;53.326;-6.298;2023-07-20T13:54:35;101419.08;;;19.53;46.54
61488;BME280;47351;53.326;-6.298;2023-07-20T13:57:35;101421.08;;;19.14;47.64
61488;BME280;47351;53.326;-6.298;2023-07-20T14:00:25;101421.67;;;18.81;48.61
61488;BME280;47351;53.326;-6.298;2023-07-20T14:03:19;101419.35;;;18.50;49.69
61488;BME280;47351;53.326;-6.298;2023-07-20T14:06:10;101421.52;;;18.25;50.79
61488;BME280;47351;53.326;-6.298;2023-07-20T14:09:05;101427.23;;;18.05;51.42
61488;BME280;47351;53.326;-6.298;2023-07-20T14:11:56;101426.82;;;17.92;52.16
61488;BME280;47351;53.326;-6.298;2023-07-20T14:14:50;101424.83;;;17.86;52.41
61488;BME280;47351;53.326;-6.298;2023-07-20T14:17:40;101428.17;;;17.77;52.82
61488;BME280;47351;53.326;-6.298;2023-07-20T14:20:33;101423.88;;;17.78;53.21
61488;BME280;47351;53.326;-6.298;2023-07-20T14:23:27;101419.87;;;17.87;53.42
61488;BME280;47351;53.326;-6.298;2023-07-20T14:26:17;101416.52;;;18.02;53.40
61488;BME280;47351;53.326;-6.298;2023-07-20T14:29:12;101412.77;;;18.23;53.36
61488;BME280;47351;53.326;-6.298;2023-07-20T14:32:02;101406.89;;;18.48;53.09
61488;BME280;47351;53.326;-6.298;2023-07-20T14:34:55;101408.36;;;18.72;52.85
61488;BME280;47351;53.326;-6.298;2023-07-20T14:37:45;101405.87;;;18.91;52.43
61488;BME280;47351;53.326;-6.298;2023-07-20T14:40:36;101405.50;;;19.10;52.15
61488;BME280;47351;53.326;-6.298;2023-07-20T14:43:27;101406.49;;;19.20;51.50
61488;BME280;47351;53.326;-6.298;2023-07-20T14:46:18;101402.34;;;19.29;51.00
61488;BME280;47351;53.326;-6.298;2023-07-20T14:49:09;101396.47;;;19.46;50.54
61488;BME280;47351;53.326;-6.298;2023-07-20T14:52:01;101391.77;;;19.70;50.46